createdAt,value
2023-01-10T00:02:54.306Z,88.87
2023-01-10T00:07:52.204Z,88.65
2023-01-10T00:13:07.246Z,89.92
2023-01-10T00:18:06.556Z,89.06
2023-01-10T00:23:04.861Z,89.25
2023-01-10T00:28:07.343Z,90.15
2023-01-10T00:33:07.898Z,89.88
2023-01-10T00:38:06.784Z,92.76
2023-01-10T00:43:22.376Z,91.25
2023-01-10T00:48:21.682Z,91.01
2023-01-10T00:53:19.556Z,90.74
2023-01-10T00:58:17.574Z,89.45
2023-01-10T01:03:15.493Z,90.84
2023-01-10T01:08:15.849Z,91.51
2023-01-10T01:13:14.833Z,90.43
2023-01-10T01:18:13.454Z,89.69
2023-01-10T01:23:11.285Z,91.76
2023-01-10T01:28:10.674Z,91.57
2023-01-10T01:33:08.583Z,90.23
2023-01-10T01:38:06.596Z,89.10
2023-01-10T01:43:04.403Z,88.79
2023-01-10T01:48:07.749Z,88.86
2023-01-10T01:53:10.375Z,89.10
2023-01-10T01:58:10.681Z,87.99
2023-01-10T02:03:10.189Z,88.55
2023-01-10T02:08:08.012Z,87.90
2023-01-10T02:13:07.209Z,89.21
2023-01-10T02:18:05.613Z,88.49
2023-01-10T02:23:24.433Z,87.90
2023-01-10T02:28:43.016Z,88.45
2023-01-10T02:33:47.516Z,88.71
2023-01-10T02:38:52.494Z,88.68
2023-01-10T02:43:52.748Z,89.08
2023-01-10T02:48:51.916Z,88.99
2023-01-10T02:53:52.857Z,88.56
2023-01-10T02:59:01.938Z,88.25
2023-01-10T03:04:05.103Z,88.66
2023-01-10T03:09:07.208Z,88.99
2023-01-10T03:14:05.073Z,87.73
2023-01-10T03:19:05.291Z,87.82
2023-01-10T03:24:07.156Z,88.07
2023-01-10T03:29:07.791Z,88.55
2023-01-10T03:34:07.214Z,88.71
2023-01-10T03:39:08.854Z,89.43
2023-01-10T03:44:31.183Z,89.29
2023-01-10T03:49:30.689Z,90.88
2023-01-10T03:54:29.125Z,90.21
2023-01-10T03:59:27.988Z,90.31
2023-01-10T04:04:27.704Z,91.56
2023-01-10T04:09:26.918Z,91.22
2023-01-10T04:14:24.796Z,92.21
2023-01-10T04:19:22.621Z,91.12
2023-01-10T04:24:20.508Z,90.10
2023-01-10T04:29:19.747Z,90.11
2023-01-10T04:34:20.233Z,90.01
2023-01-10T04:39:18.130Z,90.89
2023-01-10T04:44:15.994Z,92.97
2023-01-10T04:49:15.354Z,93.42
2023-01-10T04:54:13.233Z,94.15
2023-01-10T04:59:11.410Z,93.84
2023-01-10T05:04:09.363Z,95.15
2023-01-10T05:09:08.953Z,93.10
2023-01-10T05:14:06.933Z,92.89
2023-01-10T05:19:04.770Z,92.71
2023-01-10T05:24:02.635Z,93.06
2023-01-10T05:29:01.834Z,92.00
2023-01-10T05:33:59.747Z,92.31
2023-01-10T05:38:57.600Z,93.57
2023-01-10T05:43:55.416Z,92.78
2023-01-10T05:49:03.070Z,92.42
2023-01-10T05:54:09.905Z,92.13
2023-01-10T05:59:14.266Z,92.57
2023-01-10T06:04:33.514Z,92.49
2023-01-10T06:09:32.745Z,93.05
2023-01-10T06:14:39.427Z,92.80
2023-01-10T06:19:40.349Z,91.98
2023-01-10T06:24:38.210Z,92.08
2023-01-10T06:29:36.038Z,92.41
2023-01-10T06:34:36.556Z,92.20
2023-01-10T06:39:35.882Z,92.55
2023-01-10T06:44:33.715Z,91.83
2023-01-10T06:49:31.819Z,89.11
2023-01-10T06:54:29.619Z,90.79
2023-01-10T06:59:28.905Z,90.97
2023-01-10T07:04:27.254Z,90.76
2023-01-10T07:09:25.130Z,89.90
2023-01-10T07:14:23.126Z,92.12
2023-01-10T07:19:24.885Z,89.59
2023-01-10T07:24:23.156Z,89.43
2023-01-10T07:29:21.029Z,88.72
2023-01-10T07:34:32.119Z,88.67
2023-01-10T07:39:33.156Z,87.36
2023-01-10T07:44:34.081Z,86.86
2023-01-10T07:49:38.543Z,85.27
2023-01-10T07:54:37.809Z,82.22
2023-01-10T07:59:35.694Z,78.52
2023-01-10T08:04:33.527Z,77.28
2023-01-10T08:09:33.009Z,78.66
2023-01-10T08:14:33.858Z,78.68
2023-01-10T08:19:34.973Z,82.29
2023-01-10T08:24:35.810Z,82.02
2023-01-10T08:29:34.738Z,80.21
2023-01-10T08:34:32.547Z,80.35
2023-01-10T08:39:31.492Z,80.92
2023-01-10T08:44:35.397Z,81.80
2023-01-10T08:49:33.290Z,82.16
2023-01-10T08:54:33.482Z,82.50
2023-01-10T08:59:32.956Z,82.86
2023-01-10T09:04:33.050Z,82.47
2023-01-10T09:09:33.068Z,82.05
2023-01-10T09:14:34.663Z,81.87
2023-01-10T09:19:32.552Z,80.54
2023-01-10T09:24:34.326Z,80.71
2023-01-10T09:29:36.833Z,79.58
2023-01-10T09:34:34.772Z,80.63
2023-01-10T09:39:32.749Z,80.60
2023-01-10T09:44:36.533Z,80.90
2023-01-10T09:49:45.738Z,81.94
2023-01-10T09:54:44.317Z,82.70
2023-01-10T09:59:43.049Z,83.17
2023-01-10T10:04:42.516Z,84.63
2023-01-10T10:09:40.353Z,86.43
2023-01-10T10:14:53.994Z,87.68
2023-01-10T10:20:00.536Z,88.41
2023-01-10T10:25:03.947Z,89.35
2023-01-10T10:30:23.149Z,89.24
2023-01-10T10:35:27.106Z,88.48
2023-01-10T10:40:26.638Z,90.22
2023-01-10T10:45:29.099Z,91.19
2023-01-10T10:50:32.216Z,92.66
2023-01-10T10:55:30.986Z,92.89
2023-01-10T11:00:30.176Z,92.10
2023-01-10T11:05:33.025Z,91.83
2023-01-10T11:10:35.834Z,92.24
2023-01-10T11:15:41.014Z,93.18
2023-01-10T11:20:47.620Z,93.17
2023-01-10T11:25:48.853Z,94.04
2023-01-10T11:30:48.198Z,96.78
2023-01-10T11:35:58.916Z,96.38
2023-01-10T11:40:58.409Z,98.20
2023-01-10T11:45:57.382Z,96.93
2023-01-10T11:50:56.299Z,96.49
2023-01-10T11:55:55.512Z,98.50
2023-01-10T12:00:53.466Z,99.11
2023-01-10T12:05:52.975Z,98.72
2023-01-10T12:10:57.166Z,99.74
2023-01-10T12:16:15.344Z,99.91
2023-01-10T12:21:15.186Z,98.45
2023-01-10T12:26:13.395Z,99.52
2023-01-10T12:31:15.311Z,99.57
2023-01-10T12:36:17.115Z,100.00
2023-01-10T12:41:37.002Z,99.30
2023-01-10T12:47:05.196Z,98.89
2023-01-10T12:52:00.953Z,96.76
2023-01-10T12:57:00.265Z,95.29
2023-01-10T13:02:02.366Z,94.49
2023-01-10T13:07:01.716Z,93.03
2023-01-10T13:12:04.365Z,92.03
2023-01-10T13:17:10.148Z,90.58
2023-01-10T13:22:19.400Z,92.18
2023-01-10T13:27:19.973Z,91.60
2023-01-10T13:32:25.092Z,91.32
2023-01-10T13:37:24.726Z,92.70
2023-01-10T13:42:47.322Z,93.06
2023-01-10T13:48:05.913Z,94.41
2023-01-10T13:53:18.578Z,94.59
2023-01-10T13:58:45.063Z,94.37
2023-01-10T14:03:55.203Z,95.37
2023-01-10T14:08:54.453Z,95.91
2023-01-10T14:13:54.137Z,96.14
2023-01-10T14:18:51.995Z,96.38
2023-01-10T14:23:52.081Z,97.56
2023-01-10T14:28:51.266Z,97.16
2023-01-10T14:33:49.461Z,96.95
2023-01-10T14:38:48.326Z,96.94
2023-01-10T14:43:51.367Z,96.73
2023-01-10T14:48:51.580Z,96.36
2023-01-10T14:53:55.904Z,95.99
2023-01-10T14:58:55.245Z,95.04
2023-01-10T15:03:53.594Z,94.42
2023-01-10T15:08:58.775Z,93.94
2023-01-10T15:14:00.821Z,94.41
2023-01-10T15:18:59.065Z,92.79
2023-01-10T15:23:56.918Z,92.07
2023-01-10T15:29:08.258Z,91.67
2023-01-10T15:34:09.034Z,91.83
2023-01-10T15:39:06.896Z,91.71
2023-01-10T15:44:19.597Z,89.85
2023-01-10T15:49:23.148Z,89.92
2023-01-10T15:54:31.516Z,89.32
2023-01-10T15:59:32.854Z,90.12
2023-01-10T16:04:34.629Z,90.48
2023-01-10T16:09:32.724Z,90.00
2023-01-10T16:14:30.883Z,89.13
2023-01-10T16:19:29.200Z,87.01
2023-01-10T16:24:29.735Z,86.37
2023-01-10T16:29:27.887Z,85.98
2023-01-10T16:34:26.064Z,83.54
2023-01-10T16:39:24.699Z,84.33
2023-01-10T16:44:27.079Z,86.12
2023-01-10T16:49:25.282Z,86.83
2023-01-10T16:54:25.880Z,87.57
2023-01-10T16:59:25.127Z,88.20
2023-01-10T17:04:24.200Z,88.68
2023-01-10T17:09:23.836Z,89.34
2023-01-10T17:14:21.724Z,91.01
2023-01-10T17:19:21.496Z,90.72
2023-01-10T17:24:19.414Z,89.67
2023-01-10T17:29:17.264Z,88.95
2023-01-10T17:34:15.101Z,88.40
2023-01-10T17:39:14.387Z,88.16
2023-01-10T17:44:12.195Z,88.24
2023-01-10T17:49:11.909Z,88.35
2023-01-10T17:54:11.157Z,88.10
2023-01-10T17:59:10.287Z,87.17
2023-01-10T18:04:08.373Z,88.05
2023-01-10T18:09:07.060Z,87.02
2023-01-10T18:14:25.095Z,87.14
2023-01-10T18:19:24.329Z,86.11
2023-01-10T18:24:22.423Z,87.68
2023-01-10T18:29:20.434Z,86.25
2023-01-10T18:34:18.343Z,85.10
2023-01-10T18:39:22.448Z,85.79
2023-01-10T18:44:20.285Z,86.60
2023-01-10T18:49:18.112Z,86.01
2023-01-10T18:54:16.388Z,88.01
2023-01-10T18:59:19.096Z,88.88
2023-01-10T19:04:17.747Z,88.54
2023-01-10T19:09:15.731Z,88.03
2023-01-10T19:14:13.561Z,89.13
2023-01-10T19:19:13.194Z,88.95
2023-01-10T19:24:16.967Z,88.18
2023-01-10T19:29:14.847Z,88.33
2023-01-10T19:34:14.084Z,88.01
2023-01-10T19:39:12.011Z,86.93
2023-01-10T19:44:12.797Z,89.62
2023-01-10T19:49:17.336Z,91.00
2023-01-10T19:54:16.898Z,88.85
2023-01-10T19:59:14.977Z,86.58
2023-01-10T20:04:14.260Z,85.02
2023-01-10T20:09:13.514Z,88.30
2023-01-10T20:14:13.915Z,89.96
2023-01-10T20:19:12.434Z,89.08
2023-01-10T20:24:12.228Z,87.89
2023-01-10T20:29:10.251Z,87.49
2023-01-10T20:34:09.792Z,85.49
2023-01-10T20:39:07.617Z,87.31
2023-01-10T20:44:05.749Z,88.96
2023-01-10T20:49:03.800Z,91.52
2023-01-10T20:54:04.129Z,91.21
2023-01-10T20:59:02.518Z,89.50
2023-01-10T21:04:01.011Z,88.36
2023-01-10T21:08:59.133Z,88.00
2023-01-10T21:13:58.413Z,87.09
2023-01-10T21:18:56.341Z,87.46
2023-01-10T21:23:55.717Z,88.07
2023-01-10T21:28:58.240Z,89.77
2023-01-10T21:33:58.583Z,90.46
2023-01-10T21:38:56.460Z,89.88
2023-01-10T21:43:54.353Z,89.92
2023-01-10T21:49:02.335Z,90.07
2023-01-10T21:54:00.285Z,90.66
2023-01-10T21:59:02.254Z,91.69
2023-01-10T22:04:01.534Z,91.54
2023-01-10T22:08:59.394Z,92.08
2023-01-10T22:13:58.137Z,92.64
2023-01-10T22:18:59.719Z,90.07
2023-01-10T22:23:58.914Z,89.59
2023-01-10T22:28:57.016Z,89.44
2023-01-10T22:33:54.900Z,88.74
2023-01-10T22:38:52.735Z,88.83
2023-01-10T22:43:53.859Z,89.55
2023-01-10T22:48:51.998Z,89.34
2023-01-10T22:53:50.836Z,88.53
2023-01-10T22:58:48.886Z,88.27
2023-01-10T23:03:48.418Z,87.65
2023-01-10T23:08:46.388Z,87.88
2023-01-10T23:13:44.224Z,87.48
2023-01-10T23:18:42.369Z,87.45
2023-01-10T23:23:41.574Z,87.06
2023-01-10T23:28:40.508Z,86.83
2023-01-10T23:33:38.515Z,87.14
2023-01-10T23:38:36.453Z,87.30
2023-01-10T23:43:38.428Z,87.20
2023-01-10T23:48:36.748Z,88.00
2023-01-10T23:53:34.566Z,87.98
2023-01-10T23:58:32.392Z,88.14
